Time;durP1;ratioP1;P1;durP2;ratioP2;P2;SDS_P1;SDS_P2;PMS_P1;PMS_P2;Temp;Humidity;BMP_temperature;BMP_pressure;BME280_temperature;BME280_humidity;BME280_pressure;Samples;Min_cycle;Max_cycle;Signal;HPM_P1;HPM_P2
2024/03/05 00:01:21;;;;;;;2.50;1.50;;;21.10;53.90;;;;;;5079820;28;20036;-62
2024/03/05 00:03:48;;;;;;;2.47;1.50;;;21.00;53.80;;;;;;5078902;28;20409;-62
2024/03/05 00:06:14;;;;;;;2.38;1.60;;;21.00;53.80;;;;;;5080140;28;20132;-62
2024/03/05 00:08:39;;;;;;;2.40;1.60;;;21.00;53.80;;;;;;5077185;28;20052;-62
2024/03/05 00:11:05;;;;;;;2.00;1.40;;;21.10;53.80;;;;;;5078820;28;20115;-62
2024/03/05 00:13:32;;;;;;;2.10;1.33;;;21.00;53.80;;;;;;5080891;28;20066;-62
2024/03/05 00:15:58;;;;;;;2.15;1.50;;;21.00;53.80;;;;;;5079905;28;20098;-62
2024/03/05 00:18:24;;;;;;;2.58;1.60;;;21.00;53.70;;;;;;5081238;28;20544;-62
2024/03/05 00:20:49;;;;;;;2.10;1.25;;;21.00;53.70;;;;;;5080236;28;20126;-62
2024/03/05 00:23:15;;;;;;;2.10;1.40;;;21.00;53.70;;;;;;5079162;28;20028;-62
2024/03/05 00:25:41;;;;;;;1.75;1.30;;;21.00;53.70;;;;;;5078708;28;20434;-62
2024/03/05 00:28:06;;;;;;;1.92;1.38;;;21.00;53.70;;;;;;5079080;28;20040;-62
2024/03/05 00:30:32;;;;;;;1.98;1.38;;;21.00;53.70;;;;;;5076774;28;20077;-61
2024/03/05 00:32:58;;;;;;;2.00;1.50;;;21.00;53.70;;;;;;5060407;28;20027;-61
2024/03/05 00:35:24;;;;;;;1.77;1.33;;;20.90;53.70;;;;;;5081131;28;20032;-62
2024/03/05 00:37:50;;;;;;;1.80;1.30;;;21.00;53.70;;;;;;5077054;28;20024;-62
2024/03/05 00:40:16;;;;;;;2.38;1.40;;;21.00;53.70;;;;;;5079668;28;20028;-62
2024/03/05 00:42:42;;;;;;;1.95;1.40;;;21.00;53.70;;;;;;5079496;28;20118;-63
2024/03/05 00:45:08;;;;;;;2.10;1.40;;;21.00;53.70;;;;;;5076668;28;20059;-63
2024/03/05 00:47:34;;;;;;;1.75;1.30;;;20.90;53.60;;;;;;5079158;28;20565;-62
2024/03/05 00:50:03;;;;;;;2.42;1.40;;;20.90;53.60;;;;;;5078837;28;20032;-65
2024/03/05 00:52:29;;;;;;;2.00;1.50;;;20.90;53.60;;;;;;5079908;28;20096;-64
2024/03/05 00:54:55;;;;;;;2.15;1.40;;;20.90;53.60;;;;;;5078981;28;20408;-64
2024/03/05 00:57:20;;;;;;;1.95;1.30;;;20.90;53.60;;;;;;5078736;28;20025;-65
2024/03/05 00:59:46;;;;;;;1.98;1.30;;;20.90;53.60;;;;;;5074938;28;20475;-65
2024/03/05 01:02:12;;;;;;;2.15;1.52;;;20.90;53.60;;;;;;5081198;28;20392;-64
2024/03/05 01:04:38;;;;;;;1.80;1.30;;;20.90;53.60;;;;;;5076632;28;20024;-65
2024/03/05 01:07:04;;;;;;;2.30;1.30;;;20.90;53.70;;;;;;5078374;28;20017;-65
2024/03/05 01:09:30;;;;;;;1.88;1.20;;;20.90;53.60;;;;;;5079497;28;20388;-64
2024/03/05 01:11:56;;;;;;;2.20;1.45;;;20.90;53.60;;;;;;5080060;28;20458;-65
2024/03/05 01:14:22;;;;;;;1.73;1.25;;;20.90;53.60;;;;;;5059262;28;20036;-65
2024/03/05 01:16:47;;;;;;;2.33;1.40;;;20.90;53.60;;;;;;5078777;28;20369;-65
2024/03/05 01:19:13;;;;;;;2.08;1.35;;;20.90;53.60;;;;;;5076942;28;20028;-65
2024/03/05 01:21:43;;;;;;;1.88;1.30;;;20.90;53.70;;;;;;5075654;28;20561;-64
2024/03/05 01:24:09;;;;;;;;;;;20.90;53.60;;;;;;5079166;28;20935;-64
2024/03/05 01:26:37;;;;;;;1.75;1.20;;;20.90;53.70;;;;;;5077985;28;20006;-64
2024/03/05 01:29:04;;;;;;;2.00;1.30;;;20.90;53.60;;;;;;5075730;28;20564;-64
2024/03/05 01:31:29;;;;;;;1.80;1.30;;;20.90;53.60;;;;;;5077753;28;20472;-64
2024/03/05 01:33:55;;;;;;;1.75;1.30;;;20.90;53.60;;;;;;5077922;28;20028;-64
2024/03/05 01:36:20;;;;;;;1.85;1.35;;;20.80;53.60;;;;;;5078440;28;20870;-65
2024/03/05 01:38:46;;;;;;;1.95;1.40;;;20.90;53.60;;;;;;5079991;28;20036;-65
2024/03/05 01:41:15;;;;;;;2.00;1.40;;;20.90;53.60;;;;;;5078325;28;20024;-64
2024/03/05 01:43:41;;;;;;;1.75;1.33;;;20.80;53.60;;;;;;5079752;28;20051;-64
2024/03/05 01:46:08;;;;;;;2.38;1.48;;;20.80;53.60;;;;;;5076429;28;20106;-65
2024/03/05 01:48:33;;;;;;;2.17;1.40;;;20.80;53.60;;;;;;5079006;28;20437;-65
2024/03/05 01:51:01;;;;;;;2.15;1.30;;;20.80;53.60;;;;;;5080760;28;20071;-65
2024/03/05 01:53:27;;;;;;;2.20;1.30;;;20.80;53.60;;;;;;5079100;28;20035;-65
2024/03/05 01:55:55;;;;;;;2.00;1.30;;;20.80;53.60;;;;;;5078979;28;20516;-64
2024/03/05 01:58:21;;;;;;;2.40;1.50;;;20.80;53.60;;;;;;5077864;28;20032;-65
2024/03/05 02:00:48;;;;;;;1.90;1.40;;;20.80;53.60;;;;;;5079656;28;20036;-62
2024/03/05 02:03:13;;;;;;;1.85;1.30;;;20.80;53.90;;;;;;5078826;28;20118;-62
2024/03/05 02:05:42;;;;;;;2.08;1.48;;;20.80;53.60;;;;;;5078339;28;20547;-62
2024/03/05 02:08:08;;;;;;;2.10;1.40;;;20.80;53.60;;;;;;5080045;28;20484;-62
2024/03/05 02:10:34;;;;;;;2.20;1.50;;;20.80;53.60;;;;;;5079472;28;20122;-62
2024/03/05 02:13:00;;;;;;;2.08;1.45;;;20.80;54.10;;;;;;5083593;28;20039;-62
2024/03/05 02:15:25;;;;;;;2.38;1.42;;;20.70;53.50;;;;;;5080372;28;20074;-63
2024/03/05 02:17:51;;;;;;;1.90;1.40;;;20.80;53.60;;;;;;5080115;28;20108;-62
2024/03/05 02:20:17;;;;;;;2.15;1.50;;;20.70;53.50;;;;;;5081040;28;20111;-63
2024/03/05 02:22:43;;;;;;;2.28;1.50;;;20.70;53.60;;;;;;5080211;28;20103;-62
2024/03/05 02:25:10;;;;;;;2.38;1.60;;;20.70;53.50;;;;;;5083067;28;20036;-62
2024/03/05 02:27:36;;;;;;;2.20;1.60;;;20.80;53.60;;;;;;5081248;28;20107;-62
2024/03/05 02:30:10;;;;;;;2.10;1.23;;;20.70;53.60;;;;;;5080058;28;20579;-62
2024/03/05 02:32:40;;;;;;;2.00;1.40;;;20.80;53.60;;;;;;5081608;28;20047;-62
2024/03/05 02:35:07;;;;;;;2.08;1.42;;;20.70;53.60;;;;;;5065260;28;20054;-62
2024/03/05 02:37:37;;;;;;;1.92;1.40;;;20.70;53.50;;;;;;5080413;28;20043;-62
2024/03/05 02:40:05;;;;;;;2.13;1.30;;;20.70;53.60;;;;;;5080132;28;20111;-62
2024/03/05 02:42:31;;;;;;;1.48;1.17;;;20.70;53.60;;;;;;5080945;28;20123;-62
2024/03/05 02:44:56;;;;;;;1.98;1.40;;;20.70;53.60;;;;;;5080128;28;20120;-62
2024/03/05 02:47:22;;;;;;;2.75;1.52;;;20.70;53.60;;;;;;5081688;28;20032;-63
2024/03/05 02:49:48;;;;;;;1.95;1.30;;;20.70;53.60;;;;;;5081936;28;20456;-63
2024/03/05 02:52:13;;;;;;;1.92;1.35;;;20.70;53.60;;;;;;5096885;28;20027;-62
2024/03/05 02:54:39;;;;;;;1.88;1.40;;;20.70;53.60;;;;;;5081264;28;20031;-62
2024/03/05 02:57:07;;;;;;;2.03;1.30;;;20.70;53.60;;;;;;5082857;28;20031;-62
2024/03/05 02:59:33;;;;;;;2.13;1.40;;;20.70;53.60;;;;;;5079965;28;20059;-62
2024/03/05 03:01:58;;;;;;;2.08;1.35;;;20.70;54.10;;;;;;5082302;28;20031;-63
2024/03/05 03:04:26;;;;;;;1.67;1.30;;;20.70;53.60;;;;;;5079302;28;20032;-63
2024/03/05 03:06:52;;;;;;;2.03;1.40;;;20.70;53.60;;;;;;5081579;28;20025;-63
2024/03/05 03:09:18;;;;;;;2.22;1.45;;;20.70;53.60;;;;;;5080804;28;20139;-62
2024/03/05 03:11:47;;;;;;;2.13;1.50;;;20.70;53.60;;;;;;5066222;28;20104;-61
2024/03/05 03:14:13;;;;;;;1.85;1.30;;;20.70;53.60;;;;;;5081663;28;20028;-62
2024/03/05 03:16:40;;;;;;;1.98;1.20;;;20.70;53.60;;;;;;5079498;28;20035;-62
2024/03/05 03:19:06;;;;;;;1.60;1.20;;;20.70;53.60;;;;;;5081205;28;20036;-62
2024/03/05 03:21:31;;;;;;;1.83;1.30;;;20.70;53.60;;;;;;5078788;28;20032;-62
2024/03/05 03:23:57;;;;;;;1.70;1.30;;;20.70;53.60;;;;;;5081457;28;20119;-62
2024/03/05 03:26:23;;;;;;;1.95;1.40;;;20.70;53.60;;;;;;5079137;28;20554;-62
2024/03/05 03:28:49;;;;;;;1.95;1.30;;;20.60;53.50;;;;;;5062201;28;20108;-62
2024/03/05 03:31:15;;;;;;;2.15;1.50;;;20.70;53.60;;;;;;5078225;28;20025;-62
2024/03/05 03:33:40;;;;;;;1.88;1.30;;;20.70;53.60;;;;;;5078456;28;20020;-63
2024/03/05 03:36:06;;;;;;;1.90;1.35;;;20.60;53.50;;;;;;5079713;28;20085;-63
2024/03/05 03:38:35;;;;;;;1.92;1.30;;;20.60;53.60;;;;;;5078453;28;20104;-62
2024/03/05 03:41:00;;;;;;;1.73;1.30;;;20.60;53.50;;;;;;5080420;28;20027;-62
2024/03/05 03:43:26;;;;;;;1.92;1.40;;;20.60;53.50;;;;;;5076804;28;20092;-63
2024/03/05 03:45:52;;;;;;;2.10;1.40;;;20.60;53.50;;;;;;5076796;28;20028;-62
2024/03/05 03:48:17;;;;;;;2.00;1.25;;;20.60;53.50;;;;;;5077764;28;20024;-62
2024/03/05 03:50:43;;;;;;;1.67;1.27;;;20.60;53.50;;;;;;5077704;28;20023;-63
2024/03/05 03:53:10;;;;;;;2.28;1.35;;;20.60;53.50;;;;;;5080519;28;20077;-63
2024/03/05 03:55:37;;;;;;;1.88;1.15;;;20.60;53.60;;;;;;5080241;28;20067;-63
2024/03/05 03:58:03;;;;;;;2.03;1.40;;;20.60;53.50;;;;;;5079035;28;20541;-63
2024/03/05 04:00:29;;;;;;;1.65;1.20;;;20.60;53.60;;;;;;5078765;28;20032;-62
2024/03/05 04:02:55;;;;;;;1.90;1.42;;;20.60;53.50;;;;;;5081466;28;20024;-62
2024/03/05 04:05:20;;;;;;;1.70;1.20;;;20.60;53.60;;;;;;5079856;28;20378;-62
2024/03/05 04:07:46;;;;;;;1.70;1.23;;;20.60;53.50;;;;;;5078363;28;20033;-62
2024/03/05 04:10:12;;;;;;;1.88;1.40;;;20.60;53.50;;;;;;5079930;28;20064;-61
2024/03/05 04:12:41;;;;;;;1.60;1.20;;;20.60;53.50;;;;;;5062581;28;20905;-62
2024/03/05 04:15:12;;;;;;;1.90;1.30;;;20.50;53.50;;;;;;5079203;28;20028;-63
2024/03/05 04:17:37;;;;;;;1.83;1.30;;;20.60;53.60;;;;;;5077626;28;20400;-63
2024/03/05 04:20:05;;;;;;;2.13;1.17;;;20.60;53.50;;;;;;5078961;28;20086;-63
2024/03/05 04:22:31;;;;;;;1.38;1.17;;;20.60;53.50;;;;;;5081816;28;20063;-61
2024/03/05 04:24:57;;;;;;;1.65;1.13;;;20.60;53.50;;;;;;5079268;28;20412;-61
2024/03/05 04:27:24;;;;;;;1.95;1.30;;;20.50;53.50;;;;;;5077697;28;20090;-62
2024/03/05 04:29:57;;;;;;;2.20;1.45;;;20.60;53.50;;;;;;5081101;28;20392;-63
2024/03/05 04:32:26;;;;;;;2.03;1.42;;;20.50;53.50;;;;;;5077052;28;20035;-62
2024/03/05 04:35:02;;;;;;;1.80;1.23;;;20.60;53.50;;;;;;5079587;28;20802;-63
2024/03/05 04:37:32;;;;;;;1.98;1.20;;;20.50;53.50;;;;;;5079410;28;20395;-62
2024/03/05 04:39:58;;;;;;;1.73;1.17;;;20.50;53.50;;;;;;5078943;28;20037;-62
2024/03/05 04:42:24;;;;;;;1.52;1.20;;;20.50;53.50;;;;;;5078802;28;20025;-61
2024/03/05 04:44:51;;;;;;;1.92;1.30;;;20.50;53.50;;;;;;5079629;28;20363;-61
2024/03/05 04:47:17;;;;;;;1.55;1.17;;;20.50;53.50;;;;;;5075532;28;20025;-61
2024/03/05 04:49:42;;;;;;;1.80;1.30;;;20.50;53.50;;;;;;5080725;28;20043;-62
2024/03/05 04:52:09;;;;;;;1.98;1.40;;;20.50;53.50;;;;;;5077952;28;20024;-62
2024/03/05 04:54:35;;;;;;;1.52;1.20;;;20.50;53.50;;;;;;5080197;28;20028;-62
2024/03/05 04:57:03;;;;;;;1.63;1.10;;;20.50;53.60;;;;;;5081825;28;20476;-61
2024/03/05 04:59:29;;;;;;;1.58;1.20;;;20.50;53.60;;;;;;5079971;28;20435;-62
2024/03/05 05:01:55;;;;;;;1.70;1.20;;;20.50;53.60;;;;;;5078421;28;20412;-61
2024/03/05 05:04:21;;;;;;;1.70;1.23;;;20.50;53.60;;;;;;5077578;28;20369;-61
2024/03/05 05:06:46;;;;;;;1.90;1.20;;;20.50;53.60;;;;;;5081978;28;20039;-62
2024/03/05 05:09:12;;;;;;;1.73;1.20;;;20.50;53.60;;;;;;5077248;28;20036;-62
2024/03/05 05:11:38;;;;;;;1.40;1.10;;;20.50;53.60;;;;;;5077607;28;20063;-62
2024/03/05 05:14:04;;;;;;;2.00;1.30;;;20.50;53.60;;;;;;5079772;28;20059;-61
2024/03/05 05:16:29;;;;;;;2.35;1.40;;;20.50;53.60;;;;;;5074766;28;20048;-62
2024/03/05 05:18:55;;;;;;;1.52;1.13;;;20.50;53.70;;;;;;5078061;28;20029;-61
2024/03/05 05:21:21;;;;;;;1.77;1.30;;;20.50;53.70;;;;;;5059196;28;20566;-62
2024/03/05 05:23:47;;;;;;;1.80;1.23;;;20.50;53.70;;;;;;5079985;28;20020;-61
2024/03/05 05:26:13;;;;;;;2.10;1.40;;;20.50;53.70;;;;;;5077546;28;20078;-62
2024/03/05 05:28:41;;;;;;;1.42;1.10;;;20.40;53.60;;;;;;5079053;28;20107;-62
2024/03/05 05:31:27;;;;;;;1.87;1.27;;;20.50;53.70;;;;;;5075076;28;20469;-64
2024/03/05 05:33:55;;;;;;;1.73;1.30;;;20.50;53.70;;;;;;5077936;28;20554;-64
2024/03/05 05:36:20;;;;;;;2.03;1.30;;;20.50;53.70;;;;;;5078406;28;20048;-64
2024/03/05 05:38:48;;;;;;;1.83;1.30;;;20.50;53.70;;;;;;5077632;28;20051;-64
2024/03/05 05:41:15;;;;;;;1.63;1.20;;;20.50;53.70;;;;;;5078022;28;20028;-64
2024/03/05 05:43:41;;;;;;;2.35;1.50;;;20.50;53.70;;;;;;5080040;28;20392;-64
2024/03/05 05:46:14;;;;;;;2.55;1.50;;;20.50;53.70;;;;;;5079140;28;20036;-64
2024/03/05 05:48:43;;;;;;;1.83;1.30;;;20.40;53.60;;;;;;5063775;28;20421;-64
2024/03/05 05:51:13;;;;;;;1.95;1.25;;;20.40;53.70;;;;;;5081899;28;20062;-62
2024/03/05 05:53:39;;;;;;;1.42;1.10;;;20.40;53.70;;;;;;5083219;28;20024;-62
2024/03/05 05:56:09;;;;;;;1.30;1.10;;;20.50;53.80;;;;;;5082398;28;20029;-62
2024/03/05 05:58:35;;;;;;;1.63;1.13;;;20.40;53.70;;;;;;5081074;28;20095;-61
2024/03/05 06:01:05;;;;;;;1.77;1.38;;;20.40;53.70;;;;;;5080451;28;20107;-62
2024/03/05 06:03:36;;;;;;;2.00;1.27;;;20.40;53.80;;;;;;5064235;28;20109;-61
2024/03/05 06:06:03;;;;;;;1.65;1.17;;;20.40;53.80;;;;;;5081510;28;20025;-62
2024/03/05 06:08:29;;;;;;;2.40;1.35;;;20.40;53.80;;;;;;5082935;28;20036;-62
2024/03/05 06:10:56;;;;;;;2.75;1.35;;;20.40;53.90;;;;;;5082378;28;20024;-62
2024/03/05 06:13:24;;;;;;;3.03;1.40;;;20.40;54.00;;;;;;5080964;28;20490;-62
2024/03/05 06:15:50;;;;;;;2.08;1.30;;;20.40;54.10;;;;;;5083076;28;20024;-63
2024/03/05 06:18:16;;;;;;;2.30;1.40;;;20.40;54.30;;;;;;5079782;28;20107;-62
2024/03/05 06:20:43;;;;;;;2.55;1.60;;;20.40;54.40;;;;;;5079397;28;20449;-62
2024/03/05 06:23:09;;;;;;;2.63;1.30;;;20.40;54.90;;;;;;5082065;28;20439;-63
2024/03/05 06:25:35;;;;;;;3.10;1.60;;;20.40;54.50;;;;;;5082105;28;20492;-62
2024/03/05 06:28:01;;;;;;;1.77;1.42;;;20.40;54.60;;;;;;5083408;28;20058;-62
2024/03/05 06:30:28;;;;;;;2.88;1.50;;;20.40;54.60;;;;;;5081955;28;20048;-61
2024/03/05 06:32:54;;;;;;;2.60;1.40;;;20.40;54.60;;;;;;5079700;28;20491;-62
2024/03/05 06:35:26;;;;;;;2.20;1.40;;;20.40;54.70;;;;;;5065217;28;20126;-61
2024/03/05 06:37:53;;;;;;;2.63;1.52;;;20.40;54.70;;;;;;5080465;28;20024;-62
2024/03/05 06:40:20;;;;;;;2.00;1.33;;;20.40;54.60;;;;;;5084072;28;20143;-62
2024/03/05 06:43:03;;;;;;;1.90;1.23;;;20.40;54.60;;;;;;5081877;28;20472;-61
2024/03/05 06:45:29;;;;;;;2.47;1.20;;;20.40;54.50;;;;;;5078485;28;20064;-61
2024/03/05 06:47:56;;;;;;;2.28;1.30;;;20.40;54.40;;;;;;5079546;28;20024;-62
2024/03/05 06:50:34;;;;;;;2.58;1.30;;;20.40;54.40;;;;;;5079247;28;20044;-62
2024/03/05 06:58:38;;;;;;;3.28;1.30;;;20.40;54.60;;;;;;5081239;28;20098;-62
2024/03/05 07:01:07;;;;;;;2.20;1.20;;;20.40;54.40;;;;;;5079311;28;20150;-63
2024/03/05 07:03:37;;;;;;;1.90;1.27;;;20.40;54.40;;;;;;5080143;28;20123;-63
2024/03/05 07:06:09;;;;;;;2.55;1.30;;;20.40;54.50;;;;;;5081616;28;20078;-63
2024/03/05 07:08:47;;;;;;;2.08;1.40;;;20.40;54.40;;;;;;5083010;28;20059;-63
2024/03/05 07:11:15;;;;;;;2.20;1.42;;;20.40;54.40;;;;;;5082069;28;20139;-64
2024/03/05 07:13:42;;;;;;;2.07;1.30;;;20.40;54.50;;;;;;5083352;28;20024;-64
2024/03/05 07:16:09;;;;;;;2.03;1.30;;;20.40;54.40;;;;;;5078372;28;20032;-63
2024/03/05 07:18:38;;;;;;;3.33;1.40;;;20.40;54.40;;;;;;5076535;28;20401;-63
2024/03/05 07:21:04;;;;;;;2.73;1.30;;;20.40;54.40;;;;;;5061565;28;20144;-64
2024/03/05 07:23:29;;;;;;;2.45;1.30;;;20.40;54.40;;;;;;5082380;28;20036;-64
2024/03/05 07:25:56;;;;;;;2.83;1.50;;;20.40;54.40;;;;;;5080141;28;20168;-63
2024/03/05 07:28:22;;;;;;;2.80;1.50;;;20.40;54.40;;;;;;5063749;28;20028;-63
2024/03/05 07:30:47;;;;;;;3.70;1.58;;;20.40;54.40;;;;;;5079576;28;20484;-63
2024/03/05 07:33:13;;;;;;;3.92;1.65;;;20.40;54.30;;;;;;5077307;28;20024;-63
2024/03/05 07:35:42;;;;;;;4.43;1.83;;;20.40;54.40;;;;;;5080306;28;20033;-63
2024/03/05 07:38:07;;;;;;;2.80;1.50;;;20.40;54.50;;;;;;5081389;28;20249;-63
2024/03/05 07:40:34;;;;;;;3.03;1.60;;;20.40;54.40;;;;;;5080345;28;20701;-64
2024/03/05 07:43:02;;;;;;;4.10;1.67;;;20.40;54.90;;;;;;5080000;28;20065;-63
2024/03/05 07:45:28;;;;;;;4.13;1.80;;;20.40;54.40;;;;;;5060455;28;20180;-64
2024/03/05 07:47:54;;;;;;;3.53;1.70;;;20.40;54.40;;;;;;5077839;28;20021;-63
2024/03/05 07:50:20;;;;;;;3.22;1.85;;;20.40;54.40;;;;;;5079227;28;20529;-64
2024/03/05 07:52:47;;;;;;;4.68;1.80;;;20.40;54.30;;;;;;5080811;28;20024;-62
2024/03/05 07:55:16;;;;;;;3.83;1.92;;;20.40;54.40;;;;;;5079671;28;20032;-61
2024/03/05 07:57:43;;;;;;;4.25;1.90;;;20.40;54.40;;;;;;5079046;28;20106;-62
2024/03/05 08:00:13;;;;;;;3.50;1.85;;;20.40;54.40;;;;;;5080652;28;20453;-61
2024/03/05 08:02:41;;;;;;;4.57;2.00;;;20.40;54.40;;;;;;5076739;28;20032;-62
2024/03/05 08:05:07;;;;;;;5.30;2.00;;;20.40;54.40;;;;;;5078973;28;20487;-62
2024/03/05 08:07:36;;;;;;;5.65;2.58;;;20.40;54.40;;;;;;5078327;28;20047;-61
2024/03/05 08:10:07;;;;;;;4.13;1.67;;;20.40;54.40;;;;;;5078707;28;20038;-61
2024/03/05 08:12:37;;;;;;;4.68;2.40;;;20.40;54.40;;;;;;5077630;28;20495;-61
2024/03/05 08:15:04;;;;;;;4.18;2.08;;;20.40;54.50;;;;;;5079050;28;20114;-61
2024/03/05 08:17:36;;;;;;;4.38;2.58;;;20.40;54.50;;;;;;5076049;28;20078;-62
2024/03/05 08:20:03;;;;;;;4.93;2.05;;;20.40;54.50;;;;;;5079786;28;20035;-62
2024/03/05 08:22:29;;;;;;;4.95;2.03;;;20.40;54.50;;;;;;5080266;28;20594;-62
2024/03/05 08:24:55;;;;;;;4.38;2.00;;;20.40;54.40;;;;;;5079715;28;20020;-61
2024/03/05 08:27:21;;;;;;;5.78;2.28;;;20.40;54.50;;;;;;5077036;28;20111;-61
2024/03/05 08:29:49;;;;;;;5.10;2.22;;;20.40;54.50;;;;;;5078478;28;20468;-61
2024/03/05 08:32:16;;;;;;;5.33;1.97;;;20.40;54.50;;;;;;5076071;28;20392;-62
2024/03/05 08:34:42;;;;;;;4.85;2.28;;;20.40;54.50;;;;;;5077302;28;20620;-62
2024/03/05 08:37:11;;;;;;;4.10;2.13;;;20.40;54.50;;;;;;5079218;28;20056;-61
2024/03/05 08:39:39;;;;;;;5.20;2.20;;;20.40;54.50;;;;;;5078794;28;20647;-62
2024/03/05 08:42:05;;;;;;;4.10;2.17;;;20.40;54.50;;;;;;5078721;28;20074;-61
2024/03/05 08:44:31;;;;;;;5.85;2.42;;;20.40;54.50;;;;;;5077170;28;20036;-61
2024/03/05 08:46:57;;;;;;;5.63;2.50;;;20.40;54.50;;;;;;5078922;28;20039;-62
2024/03/05 08:49:25;;;;;;;4.95;2.50;;;20.40;54.50;;;;;;5078157;28;20028;-62
2024/03/05 08:51:54;;;;;;;4.20;2.10;;;20.40;54.50;;;;;;5079840;28;20048;-62
2024/03/05 08:54:20;;;;;;;4.43;2.08;;;20.40;54.50;;;;;;5080068;28;20021;-62
2024/03/05 08:56:46;;;;;;;4.63;2.15;;;20.40;54.60;;;;;;5078535;28;20036;-61
2024/03/05 08:59:12;;;;;;;5.22;2.30;;;20.40;54.50;;;;;;5077672;28;20025;-62
2024/03/05 09:01:38;;;;;;;4.35;2.13;;;20.40;54.50;;;;;;5077980;28;20051;-62
2024/03/05 09:04:06;;;;;;;3.92;2.22;;;20.40;54.50;;;;;;5076659;28;20383;-62
2024/03/05 09:06:33;;;;;;;5.18;2.22;;;20.40;54.50;;;;;;5078011;28;20380;-61
2024/03/05 09:08:58;;;;;;;4.38;2.20;;;20.40;54.50;;;;;;5078440;28;20145;-62
2024/03/05 09:11:24;;;;;;;4.32;1.90;;;20.40;54.50;;;;;;5079713;28;20473;-61
2024/03/05 09:13:49;;;;;;;4.25;2.10;;;20.40;54.50;;;;;;5078409;28;20025;-62
2024/03/05 09:16:16;;;;;;;4.55;2.25;;;20.40;54.50;;;;;;5077000;28;20035;-62
2024/03/05 09:18:42;;;;;;;4.65;2.58;;;20.40;54.50;;;;;;5075930;28;20037;-63
2024/03/05 09:21:09;;;;;;;4.15;1.92;;;20.40;54.50;;;;;;5077796;28;20575;-62
2024/03/05 09:23:36;;;;;;;4.70;2.10;;;20.40;54.50;;;;;;5077238;28;20112;-61
2024/03/05 09:26:01;;;;;;;4.28;2.47;;;20.40;54.50;;;;;;5077651;28;20024;-61
2024/03/05 09:28:27;;;;;;;4.28;2.50;;;20.40;54.50;;;;;;5075405;28;20041;-61
2024/03/05 09:30:52;;;;;;;4.10;2.45;;;20.40;54.50;;;;;;5077451;28;20082;-62
2024/03/05 09:33:18;;;;;;;3.65;2.00;;;20.40;54.60;;;;;;5077432;28;20036;-61
2024/03/05 09:35:44;;;;;;;4.38;2.03;;;20.40;54.50;;;;;;5078582;28;20025;-62
2024/03/05 09:38:13;;;;;;;4.32;2.00;;;20.40;54.50;;;;;;5078213;28;20423;-62
2024/03/05 09:40:40;;;;;;;3.58;1.98;;;20.40;54.50;;;;;;5076268;28;20024;-61
2024/03/05 09:43:07;;;;;;;4.82;2.40;;;20.40;54.50;;;;;;5078021;28;20860;-61
2024/03/05 09:45:36;;;;;;;3.60;2.30;;;20.40;54.50;;;;;;5078798;28;20354;-62
2024/03/05 09:48:03;;;;;;;4.22;2.10;;;20.40;54.50;;;;;;5076050;28;20021;-62
2024/03/05 09:50:31;;;;;;;4.55;2.13;;;20.40;54.50;;;;;;5074396;28;20052;-62
2024/03/05 09:52:59;;;;;;;4.45;2.30;;;20.40;54.50;;;;;;5080683;28;20024;-62
2024/03/05 09:55:25;;;;;;;3.92;2.20;;;20.40;54.90;;;;;;5081416;28;20029;-61
2024/03/05 09:57:54;;;;;;;4.30;2.50;;;20.40;54.40;;;;;;5077832;28;20036;-62
2024/03/05 10:00:21;;;;;;;5.20;2.30;;;20.40;54.50;;;;;;5078014;28;20032;-61
2024/03/05 10:02:50;;;;;;;4.72;2.38;;;20.40;54.50;;;;;;5092756;28;20036;-62
2024/03/05 10:05:18;;;;;;;4.07;2.20;;;20.40;54.50;;;;;;5077499;28;20028;-61
2024/03/05 10:07:44;;;;;;;3.50;2.28;;;20.40;54.50;;;;;;5079213;28;20118;-61
2024/03/05 10:10:17;;;;;;;4.07;2.30;;;20.40;54.50;;;;;;5077819;28;20344;-62
2024/03/05 10:12:42;;;;;;;4.10;2.17;;;20.40;54.50;;;;;;5078165;28;20078;-62
2024/03/05 10:15:24;;;;;;;2.95;2.08;;;20.40;54.50;;;;;;5077583;28;20468;-62
2024/03/05 10:17:52;;;;;;;3.28;2.22;;;20.40;54.40;;;;;;5077848;28;20468;-61
2024/03/05 10:20:28;;;;;;;4.38;2.20;;;20.40;54.50;;;;;;5093012;28;20511;-62
2024/03/05 10:23:00;;;;;;;3.70;2.15;;;20.40;54.50;;;;;;5061312;28;20036;-62
2024/03/05 10:25:26;;;;;;;3.78;2.10;;;20.40;54.50;;;;;;5077033;28;20079;-62
2024/03/05 10:27:54;;;;;;;3.83;2.17;;;20.40;54.40;;;;;;5078842;28;20016;-63
2024/03/05 10:30:33;;;;;;;3.28;2.10;;;20.40;54.50;;;;;;5079728;28;20116;-62
2024/03/05 10:33:09;;;;;;;3.80;2.30;;;20.40;54.40;;;;;;5080652;28;20032;-64
2024/03/05 10:35:36;;;;;;;4.50;2.30;;;20.40;54.40;;;;;;5062042;28;20437;-65
2024/03/05 10:38:10;;;;;;;3.20;1.92;;;20.40;54.40;;;;;;5081885;28;20021;-64
2024/03/05 10:40:36;;;;;;;4.22;2.33;;;20.40;54.40;;;;;;5080500;28;20053;-64
2024/03/05 10:43:08;;;;;;;3.58;2.05;;;20.40;54.50;;;;;;5080381;28;20032;-64
2024/03/05 10:45:35;;;;;;;3.45;2.20;;;20.40;54.40;;;;;;5081736;28;20047;-64
2024/03/05 10:48:01;;;;;;;3.88;2.20;;;20.40;54.40;;;;;;5081446;28;20460;-64
2024/03/05 10:50:28;;;;;;;3.38;2.00;;;20.40;54.40;;;;;;5076592;28;20055;-64
2024/03/05 10:52:55;;;;;;;3.88;2.15;;;20.40;54.30;;;;;;5081973;28;20333;-64
2024/03/05 10:55:22;;;;;;;4.10;2.33;;;20.40;54.40;;;;;;5080629;28;20017;-64
2024/03/05 11:00:37;;;;;;;3.47;2.00;;;20.40;54.40;;;;;;5081739;28;20023;-64
2024/03/05 11:03:10;;;;;;;3.60;1.92;;;20.40;54.40;;;;;;5081656;28;20918;-64
2024/03/05 11:05:50;;;;;;;3.33;2.10;;;20.40;54.40;;;;;;5079983;28;20032;-63
2024/03/05 11:08:20;;;;;;;4.28;2.28;;;20.40;54.40;;;;;;5081592;28;20084;-64
2024/03/05 11:11:25;;;;;;;3.47;2.00;;;20.40;54.40;;;;;;5081174;28;20527;-64
2024/03/05 11:13:52;;;;;;;3.42;1.90;;;20.40;54.40;;;;;;5079790;28;20422;-65
2024/03/05 11:16:20;;;;;;;3.65;2.10;;;20.40;54.40;;;;;;5079568;28;20093;-64
2024/03/05 11:18:46;;;;;;;3.55;2.28;;;20.40;54.40;;;;;;5076945;28;20028;-65
2024/03/05 11:21:15;;;;;;;3.97;2.40;;;20.40;54.40;;;;;;5082246;28;20103;-64
2024/03/05 11:23:41;;;;;;;4.28;2.40;;;20.40;54.40;;;;;;5082309;28;20032;-61
2024/03/05 11:26:07;;;;;;;3.70;2.40;;;20.40;54.30;;;;;;5081371;28;20040;-62
2024/03/05 11:28:34;;;;;;;4.65;2.55;;;20.40;54.30;;;;;;5079499;28;20028;-62
2024/03/05 11:31:20;;;;;;;4.30;2.20;;;20.40;54.20;;;;;;5078498;28;20051;-61
2024/03/05 11:34:03;;;;;;;3.22;2.00;;;20.40;54.50;;;;;;5079107;28;20424;-61
2024/03/05 11:36:36;;;;;;;3.17;2.17;;;20.40;54.30;;;;;;5078223;28;20036;-63
2024/03/05 11:39:14;;;;;;;4.63;2.17;;;20.40;54.20;;;;;;5079637;28;20499;-61
2024/03/05 11:41:44;;;;;;;3.78;2.33;;;20.40;54.20;;;;;;5078886;28;20496;-63
2024/03/05 11:44:12;;;;;;;3.70;2.25;;;20.40;54.20;;;;;;5080384;28;20016;-64
2024/03/05 11:46:46;;;;;;;3.42;2.15;;;20.40;54.20;;;;;;5079647;28;20030;-63
2024/03/05 11:49:13;;;;;;;3.25;2.10;;;20.40;54.20;;;;;;5079601;28;20175;-63
2024/03/05 11:51:40;;;;;;;3.70;2.30;;;20.40;54.20;;;;;;5080097;28;20024;-64
2024/03/05 11:54:09;;;;;;;3.72;2.20;;;20.40;54.10;;;;;;5081159;28;20031;-63
2024/03/05 11:56:36;;;;;;;3.67;2.35;;;20.40;54.20;;;;;;5061817;28;20052;-64
2024/03/05 11:59:02;;;;;;;4.03;2.00;;;20.40;54.20;;;;;;5078666;28;20111;-64
2024/03/05 12:01:29;;;;;;;3.35;2.20;;;20.40;54.10;;;;;;5081914;28;20260;-63
2024/03/05 12:04:14;;;;;;;3.72;2.45;;;20.40;54.20;;;;;;5078793;28;20028;-63
2024/03/05 12:06:43;;;;;;;3.28;2.10;;;20.40;54.20;;;;;;5079409;28;20429;-64
2024/03/05 12:09:22;;;;;;;2.97;1.95;;;20.40;54.10;;;;;;5079257;28;20075;-64
2024/03/05 12:12:02;;;;;;;3.10;2.13;;;20.40;54.20;;;;;;5078883;28;20040;-63
2024/03/05 12:14:30;;;;;;;;;;;20.40;54.20;;;;;;5080447;28;20424;-64
2024/03/05 12:17:02;;;;;;;3.42;2.17;;;20.40;54.20;;;;;;5077679;28;20325;-63
2024/03/05 12:19:27;;;;;;;2.58;1.92;;;20.40;54.10;;;;;;5078239;28;20032;-64
2024/03/05 12:21:54;;;;;;;3.42;2.20;;;20.40;54.10;;;;;;5095567;28;20132;-63
2024/03/05 12:24:21;;;;;;;2.90;2.30;;;20.40;54.20;;;;;;5078462;28;20105;-64
2024/03/05 12:26:48;;;;;;;3.28;2.13;;;20.40;54.10;;;;;;5079557;28;20028;-64
2024/03/05 12:29:44;;;;;;;3.33;1.95;;;20.40;54.20;;;;;;5077025;28;20059;-64
2024/03/05 12:32:11;;;;;;;3.28;1.80;;;20.40;54.10;;;;;;5079240;28;20445;-64
2024/03/05 12:34:38;;;;;;;3.60;2.28;;;20.40;54.20;;;;;;5077802;28;20721;-64
2024/03/05 12:37:09;;;;;;;3.00;2.10;;;20.40;54.70;;;;;;5080950;28;20086;-64
2024/03/05 12:39:39;;;;;;;3.35;2.28;;;20.40;54.10;;;;;;5079380;28;20024;-64
2024/03/05 12:42:08;;;;;;;3.13;2.28;;;20.40;54.20;;;;;;5080094;28;20051;-64
2024/03/05 12:44:34;;;;;;;4.50;2.10;;;20.40;54.30;;;;;;5078429;28;20036;-64
2024/03/05 12:47:12;;;;;;;3.38;2.13;;;20.40;54.30;;;;;;5078656;28;20488;-64
2024/03/05 12:49:45;;;;;;;3.00;2.10;;;20.40;54.30;;;;;;5076352;28;20028;-64
2024/03/05 12:52:12;;;;;;;3.85;2.38;;;20.40;54.30;;;;;;5077482;28;20384;-64
2024/03/05 12:54:38;;;;;;;4.18;2.15;;;20.40;54.30;;;;;;5079814;28;20174;-64
2024/03/05 12:57:04;;;;;;;3.33;2.20;;;20.40;54.30;;;;;;5078746;28;20070;-64
2024/03/05 12:59:31;;;;;;;3.78;2.70;;;20.40;54.40;;;;;;5077109;28;20110;-64